Time;durP1;ratioP1;P1;durP2;ratioP2;P2;SDS_P1;SDS_P2;PMS_P1;PMS_P2;Temp;Humidity;BMP_temperature;BMP_pressure;BME280_temperature;BME280_humidity;BME280_pressure;Samples;Min_cycle;Max_cycle;Signal;HPM_P1;HPM_P2
2024/01/01 00:00:08;;;;;;;52.95;36.60;;;;;;;;;;5056560;28;20032;-57
2024/01/01 00:02:34;;;;;;;45.30;34.78;;;;;;;;;;5055991;28;20028;-55
2024/01/01 00:05:00;;;;;;;55.28;38.60;;;;;;;;;;5055625;28;20067;-53
2024/01/01 00:07:26;;;;;;;42.03;34.33;;;;;;;;;;5056479;28;20025;-57
2024/01/01 00:09:52;;;;;;;41.22;30.80;;;;;;;;;;5056522;28;20032;-55
2024/01/01 00:12:18;;;;;;;39.05;29.88;;;;;;;;;;5056265;28;20035;-55
2024/01/01 00:14:44;;;;;;;38.17;29.75;;;;;;;;;;5055480;28;20028;-56
2024/01/01 00:17:10;;;;;;;51.85;30.02;;;;;;;;;;5054569;28;20124;-57
2024/01/01 00:19:36;;;;;;;39.20;26.35;;;;;;;;;;5054401;28;20115;-56
2024/01/01 00:22:02;;;;;;;36.33;25.05;;;;;;;;;;5056099;28;20366;-56
2024/01/01 00:24:29;;;;;;;23.77;19.80;;;;;;;;;;5056329;28;20126;-55
2024/01/01 00:26:55;;;;;;;22.92;16.15;;;;;;;;;;5055212;28;20463;-54
2024/01/01 00:29:21;;;;;;;16.20;13.15;;;;;;;;;;5056350;28;20033;-57
2024/01/01 00:31:47;;;;;;;16.83;14.18;;;;;;;;;;5056022;28;20443;-57
2024/01/01 00:34:13;;;;;;;18.25;12.05;;;;;;;;;;5055550;28;20485;-57
2024/01/01 00:36:38;;;;;;;14.48;10.38;;;;;;;;;;5055188;28;20486;-55
2024/01/01 00:39:04;;;;;;;14.00;10.75;;;;;;;;;;5056180;28;20033;-57
2024/01/01 00:41:30;;;;;;;14.82;10.80;;;;;;;;;;5055309;28;20143;-56
2024/01/01 00:43:56;;;;;;;18.42;9.80;;;;;;;;;;5055289;28;20025;-55
2024/01/01 00:46:22;;;;;;;16.08;9.52;;;;;;;;;;5055721;28;20497;-54
2024/01/01 00:48:48;;;;;;;9.65;7.90;;;;;;;;;;5055786;28;20467;-57
2024/01/01 00:51:14;;;;;;;10.50;7.97;;;;;;;;;;5055188;28;20052;-56
2024/01/01 00:53:40;;;;;;;11.82;8.50;;;;;;;;;;5055147;28;20025;-57
2024/01/01 00:56:07;;;;;;;9.05;7.57;;;;;;;;;;5054645;28;20106;-56
2024/01/01 00:58:33;;;;;;;8.35;6.88;;;;;;;;;;5055006;28;20064;-57
2024/01/01 01:00:58;;;;;;;14.15;6.70;;;;;;;;;;5054989;28;20068;-56
2024/01/01 01:03:24;;;;;;;11.10;6.78;;;;;;;;;;5054876;28;20047;-56
2024/01/01 01:05:50;;;;;;;11.60;7.38;;;;;;;;;;5055691;28;20044;-56
2024/01/01 01:08:17;;;;;;;9.45;7.32;;;;;;;;;;5055140;28;20043;-56
2024/01/01 01:10:43;;;;;;;10.73;6.88;;;;;;;;;;5054663;28;20516;-56
2024/01/01 01:13:08;;;;;;;12.73;7.95;;;;;;;;;;5055190;28;20037;-56
2024/01/01 01:15:35;;;;;;;10.85;6.32;;;;;;;;;;5054535;28;20476;-53
2024/01/01 01:18:01;;;;;;;15.10;8.00;;;;;;;;;;5055127;28;20029;-56
2024/01/01 01:20:27;;;;;;;11.38;8.07;;;;;;;;;;5054585;28;20366;-51
2024/01/01 01:22:53;;;;;;;8.90;7.15;;;;;;;;;;5055084;28;20108;-52
2024/01/01 01:25:19;;;;;;;20.27;8.98;;;;;;;;;;5054604;28;20124;-54
2024/01/01 01:27:45;;;;;;;8.93;6.72;;;;;;;;;;5054502;28;20029;-55
2024/01/01 01:30:11;;;;;;;8.73;6.93;;;;;;;;;;5054778;28;20033;-54
2024/01/01 01:32:38;;;;;;;11.85;6.75;;;;;;;;;;5054680;28;20043;-57
2024/01/01 01:35:04;;;;;;;9.32;6.53;;;;;;;;;;5054621;28;20028;-56
2024/01/01 01:37:30;;;;;;;6.60;5.40;;;;;;;;;;5054853;28;20434;-49
2024/01/01 01:39:56;;;;;;;11.98;5.68;;;;;;;;;;5053857;28;20121;-54
2024/01/01 01:42:22;;;;;;;8.50;5.40;;;;;;;;;;5054708;28;20115;-55
2024/01/01 01:44:48;;;;;;;7.97;5.75;;;;;;;;;;5054469;28;20068;-53
2024/01/01 01:47:14;;;;;;;8.52;6.05;;;;;;;;;;5054548;28;20412;-56
2024/01/01 01:49:40;;;;;;;9.27;5.38;;;;;;;;;;5054046;28;20116;-53
2024/01/01 01:52:07;;;;;;;8.35;5.20;;;;;;;;;;5054613;28;20024;-56
2024/01/01 01:54:34;;;;;;;6.93;5.65;;;;;;;;;;5054033;28;20031;-56
2024/01/01 01:57:00;;;;;;;14.10;5.28;;;;;;;;;;5053914;28;20045;-55
2024/01/01 01:59:26;;;;;;;8.43;4.90;;;;;;;;;;5054346;28;20064;-53
2024/01/01 02:01:52;;;;;;;8.13;5.95;;;;;;;;;;5053825;28;20050;-55
2024/01/01 02:04:18;;;;;;;6.88;5.05;;;;;;;;;;5054221;28;20455;-55
2024/01/01 02:06:47;;;;;;;6.30;4.82;;;;;;;;;;5053804;28;20024;-55
2024/01/01 02:09:13;;;;;;;7.93;4.85;;;;;;;;;;5054356;28;20033;-57
2024/01/01 02:11:39;;;;;;;8.48;4.95;;;;;;;;;;5053526;28;20036;-56
2024/01/01 02:14:12;;;;;;;8.07;4.60;;;;;;;;;;5054028;28;20025;-56
2024/01/01 02:16:39;;;;;;;7.90;5.32;;;;;;;;;;5053911;28;20036;-55
2024/01/01 02:19:09;;;;;;;8.52;5.70;;;;;;;;;;5054426;28;20033;-54
2024/01/01 02:21:35;;;;;;;7.30;5.00;;;;;;;;;;5053735;28;20086;-56
2024/01/01 02:24:01;;;;;;;7.35;4.68;;;;;;;;;;5053548;28;20029;-57
2024/01/01 02:26:27;;;;;;;8.05;4.93;;;;;;;;;;5053611;28;20027;-54
2024/01/01 02:28:53;;;;;;;9.57;5.45;;;;;;;;;;5054218;28;20393;-55
2024/01/01 02:31:19;;;;;;;7.97;5.13;;;;;;;;;;5053410;28;20462;-56
2024/01/01 02:33:44;;;;;;;7.13;4.72;;;;;;;;;;5053470;28;20021;-56
2024/01/01 02:36:10;;;;;;;7.25;5.53;;;;;;;;;;5053974;28;20034;-55
2024/01/01 02:38:36;;;;;;;8.35;4.63;;;;;;;;;;5053668;28;20354;-56
2024/01/01 02:41:02;;;;;;;11.13;6.18;;;;;;;;;;5055801;28;20344;-56
2024/01/01 02:43:28;;;;;;;7.07;5.45;;;;;;;;;;5057217;28;20029;-56
2024/01/01 02:45:54;;;;;;;9.02;5.03;;;;;;;;;;5057476;28;20120;-56
2024/01/01 02:48:20;;;;;;;13.32;5.70;;;;;;;;;;5057644;28;20068;-54
2024/01/01 02:50:46;;;;;;;11.85;6.78;;;;;;;;;;5057397;28;20029;-55
2024/01/01 02:53:12;;;;;;;8.68;5.85;;;;;;;;;;5057892;28;20027;-56
2024/01/01 02:55:38;;;;;;;9.35;6.53;;;;;;;;;;5057813;28;20057;-55
2024/01/01 02:58:04;;;;;;;10.48;6.35;;;;;;;;;;5057278;28;20021;-55
2024/01/01 03:00:30;;;;;;;9.05;6.40;;;;;;;;;;5057336;28;20029;-55
2024/01/01 03:02:56;;;;;;;9.25;6.05;;;;;;;;;;5057442;28;20033;-55
2024/01/01 03:05:25;;;;;;;13.73;7.30;;;;;;;;;;5057182;28;20021;-51
2024/01/01 03:07:51;;;;;;;9.63;6.20;;;;;;;;;;5057750;28;20048;-56
2024/01/01 03:10:17;;;;;;;8.52;6.38;;;;;;;;;;5057123;28;20036;-54
2024/01/01 03:12:43;;;;;;;8.60;6.03;;;;;;;;;;5057408;28;20029;-55
2024/01/01 03:15:09;;;;;;;10.57;6.20;;;;;;;;;;5057050;28;20036;-56
2024/01/01 03:17:35;;;;;;;9.63;6.07;;;;;;;;;;5057512;28;20343;-54
2024/01/01 03:20:01;;;;;;;7.50;6.07;;;;;;;;;;5057751;28;20040;-55
2024/01/01 03:22:27;;;;;;;10.30;6.15;;;;;;;;;;5057027;28;20029;-56
2024/01/01 03:24:53;;;;;;;13.98;6.70;;;;;;;;;;5057397;28;20459;-53
2024/01/01 03:27:19;;;;;;;9.38;6.85;;;;;;;;;;5057653;28;20025;-55
2024/01/01 03:29:45;;;;;;;8.52;5.78;;;;;;;;;;5056722;28;20027;-53
2024/01/01 03:32:11;;;;;;;11.75;6.45;;;;;;;;;;5056736;28;20032;-55
2024/01/01 03:34:37;;;;;;;6.43;4.80;;;;;;;;;;5056981;28;20025;-55
2024/01/01 03:37:03;;;;;;;12.65;6.13;;;;;;;;;;5056667;28;20025;-55
2024/01/01 03:39:29;;;;;;;10.13;5.30;;;;;;;;;;5056457;28;20108;-54
2024/01/01 03:41:55;;;;;;;8.23;4.82;;;;;;;;;;5056518;28;20053;-50
2024/01/01 03:44:21;;;;;;;10.20;6.22;;;;;;;;;;5057313;28;20367;-54
2024/01/01 03:46:47;;;;;;;11.48;4.45;;;;;;;;;;5056427;28;20032;-56
2024/01/01 03:49:13;;;;;;;8.68;5.03;;;;;;;;;;5056696;28;20025;-55
2024/01/01 03:51:39;;;;;;;6.40;4.57;;;;;;;;;;5056559;28;20367;-56
2024/01/01 03:54:05;;;;;;;8.63;4.47;;;;;;;;;;5056612;28;20029;-54
2024/01/01 03:56:30;;;;;;;7.95;4.30;;;;;;;;;;5056412;28;20049;-53
2024/01/01 03:58:57;;;;;;;6.03;4.53;;;;;;;;;;5056956;28;20029;-52
2024/01/01 04:01:23;;;;;;;6.45;3.95;;;;;;;;;;5056133;28;20082;-51
2024/01/01 04:03:48;;;;;;;6.03;3.53;;;;;;;;;;5056109;28;20033;-54
2024/01/01 04:06:14;;;;;;;8.02;3.90;;;;;;;;;;5056036;28;20021;-53
2024/01/01 04:08:40;;;;;;;7.00;3.38;;;;;;;;;;5056597;28;20029;-50
2024/01/01 04:11:06;;;;;;;3.55;2.55;;;;;;;;;;5056259;28;20029;-53
2024/01/01 04:13:32;;;;;;;5.35;2.90;;;;;;;;;;5055918;28;20028;-53
2024/01/01 04:15:58;;;;;;;3.72;2.15;;;;;;;;;;5055855;28;20017;-53
2024/01/01 04:18:24;;;;;;;5.22;2.55;;;;;;;;;;5055911;28;20029;-50
2024/01/01 04:20:50;;;;;;;7.53;2.97;;;;;;;;;;5055467;28;20029;-51
2024/01/01 04:23:16;;;;;;;3.33;2.30;;;;;;;;;;5056505;28;20052;-54
2024/01/01 04:25:42;;;;;;;2.95;1.50;;;;;;;;;;5055784;28;20017;-49
2024/01/01 04:28:08;;;;;;;3.75;1.95;;;;;;;;;;5056553;28;20059;-56
2024/01/01 04:30:34;;;;;;;3.92;2.10;;;;;;;;;;5055877;28;20108;-54
2024/01/01 04:33:00;;;;;;;2.63;1.40;;;;;;;;;;5055679;28;20048;-52
2024/01/01 04:35:26;;;;;;;3.25;1.80;;;;;;;;;;5055572;28;20029;-55
2024/01/01 04:37:52;;;;;;;7.47;1.33;;;;;;;;;;5056005;28;20025;-55
2024/01/01 04:40:19;;;;;;;6.32;1.80;;;;;;;;;;5055822;28;20025;-53
2024/01/01 04:42:48;;;;;;;2.97;0.95;;;;;;;;;;5055411;28;20025;-55
2024/01/01 04:45:14;;;;;;;2.17;1.25;;;;;;;;;;5055907;28;20060;-54
2024/01/01 04:47:40;;;;;;;2.05;1.20;;;;;;;;;;5055883;28;20359;-54
2024/01/01 04:50:06;;;;;;;2.40;1.17;;;;;;;;;;5055236;28;20032;-53
2024/01/01 04:52:32;;;;;;;2.22;1.35;;;;;;;;;;5054972;28;20138;-56
2024/01/01 04:54:58;;;;;;;1.90;0.77;;;;;;;;;;5055199;28;20471;-52
2024/01/01 04:57:24;;;;;;;4.75;1.30;;;;;;;;;;5055683;28;20048;-52
2024/01/01 04:59:50;;;;;;;4.25;1.30;;;;;;;;;;5055017;28;20025;-53
2024/01/01 05:02:16;;;;;;;2.42;1.02;;;;;;;;;;5055242;28;20035;-51
2024/01/01 05:04:42;;;;;;;2.97;1.17;;;;;;;;;;5054684;28;20025;-53
2024/01/01 05:07:08;;;;;;;2.35;1.48;;;;;;;;;;5055038;28;20056;-53
2024/01/01 05:09:34;;;;;;;3.05;1.13;;;;;;;;;;5055516;28;20021;-53
2024/01/01 05:12:00;;;;;;;2.17;1.05;;;;;;;;;;5054925;28;20032;-52
2024/01/01 05:14:26;;;;;;;3.67;1.00;;;;;;;;;;5054899;28;20032;-53
2024/01/01 05:16:51;;;;;;;2.55;1.10;;;;;;;;;;5054830;28;20029;-49
2024/01/01 05:19:17;;;;;;;2.65;1.05;;;;;;;;;;5055629;28;20394;-50
2024/01/01 05:21:43;;;;;;;3.97;0.85;;;;;;;;;;5055259;28;20087;-54
2024/01/01 05:24:09;;;;;;;6.97;1.27;;;;;;;;;;5054790;28;20061;-52
2024/01/01 05:26:36;;;;;;;6.00;1.38;;;;;;;;;;5055449;28;20459;-57
2024/01/01 05:29:02;;;;;;;3.38;1.45;;;;;;;;;;5055220;28;20108;-57
2024/01/01 05:31:28;;;;;;;2.58;1.02;;;;;;;;;;5054479;28;20046;-57
2024/01/01 05:33:54;;;;;;;6.03;1.35;;;;;;;;;;5055440;28;20071;-57
2024/01/01 05:36:20;;;;;;;3.10;1.52;;;;;;;;;;5054277;28;20053;-56
2024/01/01 05:38:46;;;;;;;1.70;1.02;;;;;;;;;;5054253;28;20033;-56
2024/01/01 05:41:12;;;;;;;2.47;0.82;;;;;;;;;;5054383;28;20082;-56
2024/01/01 05:43:38;;;;;;;5.68;1.40;;;;;;;;;;5054661;28;20110;-56
2024/01/01 05:46:04;;;;;;;2.17;1.23;;;;;;;;;;5054356;28;20029;-56
2024/01/01 05:48:30;;;;;;;3.67;1.67;;;;;;;;;;5054918;28;20024;-56
2024/01/01 05:50:56;;;;;;;2.15;1.42;;;;;;;;;;5054803;28;20366;-56
2024/01/01 05:53:22;;;;;;;2.95;1.63;;;;;;;;;;5054241;28;20542;-54
2024/01/01 05:55:48;;;;;;;2.38;1.25;;;;;;;;;;5053975;28;20134;-54
2024/01/01 05:58:13;;;;;;;2.60;1.13;;;;;;;;;;5054013;28;20481;-56
2024/01/01 06:00:39;;;;;;;4.85;2.35;;;;;;;;;;5054019;28;20447;-54
2024/01/01 06:03:05;;;;;;;3.88;1.90;;;;;;;;;;5054470;28;20061;-54
2024/01/01 06:05:35;;;;;;;6.63;1.55;;;;;;;;;;5053961;28;20028;-56
2024/01/01 06:08:02;;;;;;;6.00;1.73;;;;;;;;;;5054296;28;20064;-55
2024/01/01 06:10:28;;;;;;;3.25;1.70;;;;;;;;;;5054162;28;20462;-56
2024/01/01 06:12:56;;;;;;;3.30;1.38;;;;;;;;;;5053804;28;20025;-56
2024/01/01 06:15:22;;;;;;;6.07;1.33;;;;;;;;;;5052959;28;20052;-55
2024/01/01 06:17:48;;;;;;;3.45;1.52;;;;;;;;;;5054320;28;20112;-54
2024/01/01 06:20:14;;;;;;;2.75;1.05;;;;;;;;;;5054088;28;20495;-56
2024/01/01 06:22:40;;;;;;;4.63;1.73;;;;;;;;;;5053695;28;20029;-55
2024/01/01 06:25:08;;;;;;;1.92;1.05;;;;;;;;;;5053718;28;20020;-55
2024/01/01 06:27:34;;;;;;;1.95;1.13;;;;;;;;;;5054281;28;20367;-56
2024/01/01 06:30:00;;;;;;;2.47;1.60;;;;;;;;;;5053364;28;20029;-54
2024/01/01 06:32:26;;;;;;;2.38;1.38;;;;;;;;;;5053663;28;20033;-55
2024/01/01 06:34:52;;;;;;;3.67;1.67;;;;;;;;;;5053622;28;20344;-54
2024/01/01 06:37:18;;;;;;;3.65;1.15;;;;;;;;;;5054180;28;20020;-55
2024/01/01 06:39:44;;;;;;;2.50;1.23;;;;;;;;;;5053841;28;20463;-56
2024/01/01 06:42:10;;;;;;;3.72;1.10;;;;;;;;;;5054115;28;20025;-56
2024/01/01 06:44:36;;;;;;;3.30;0.85;;;;;;;;;;5053659;28;20060;-55
2024/01/01 06:47:03;;;;;;;4.47;1.40;;;;;;;;;;5054044;28;20025;-55
2024/01/01 06:49:29;;;;;;;4.00;0.93;;;;;;;;;;5053803;28;20051;-55
2024/01/01 06:51:55;;;;;;;5.28;1.67;;;;;;;;;;5053457;28;20033;-55
2024/01/01 06:54:21;;;;;;;4.93;1.17;;;;;;;;;;5054041;28;20017;-54
2024/01/01 06:56:47;;;;;;;3.47;1.00;;;;;;;;;;5053489;28;20367;-54
2024/01/01 06:59:13;;;;;;;1.40;0.77;;;;;;;;;;5053842;28;20454;-52
2024/01/01 07:01:41;;;;;;;3.65;1.38;;;;;;;;;;5053352;28;20033;-54
2024/01/01 07:04:07;;;;;;;3.83;1.40;;;;;;;;;;5053367;28;20052;-53
2024/01/01 07:06:34;;;;;;;5.05;1.50;;;;;;;;;;5053398;28;20025;-53
2024/01/01 07:09:00;;;;;;;2.65;1.38;;;;;;;;;;5053045;28;20478;-55
2024/01/01 07:11:26;;;;;;;2.25;0.95;;;;;;;;;;5053262;28;20047;-54
2024/01/01 07:13:52;;;;;;;2.25;0.98;;;;;;;;;;5053259;28;20021;-56
2024/01/01 07:16:18;;;;;;;4.93;0.80;;;;;;;;;;5053262;28;20025;-55
2024/01/01 07:18:44;;;;;;;4.43;0.80;;;;;;;;;;5054069;28;20439;-53
2024/01/01 07:21:09;;;;;;;3.33;0.70;;;;;;;;;;5053212;28;20493;-55
2024/01/01 07:23:35;;;;;;;4.80;0.80;;;;;;;;;;5053268;28;20478;-56
2024/01/01 07:26:01;;;;;;;1.98;0.68;;;;;;;;;;5054353;28;20056;-54
2024/01/01 07:28:27;;;;;;;1.90;0.98;;;;;;;;;;5057502;28;20039;-54
2024/01/01 07:30:53;;;;;;;4.22;1.00;;;;;;;;;;5056553;28;20025;-53
2024/01/01 07:33:19;;;;;;;5.65;0.98;;;;;;;;;;5056764;28;20029;-54
2024/01/01 07:35:45;;;;;;;5.80;1.27;;;;;;;;;;5056726;28;20028;-53
2024/01/01 07:38:11;;;;;;;1.63;0.60;;;;;;;;;;5056810;28;20040;-51
2024/01/01 07:40:37;;;;;;;3.88;1.20;;;;;;;;;;5056703;28;20112;-52
2024/01/01 07:43:04;;;;;;;2.45;1.00;;;;;;;;;;5056644;28;20064;-53
2024/01/01 07:45:30;;;;;;;3.00;0.65;;;;;;;;;;5056599;28;20029;-50
2024/01/01 07:47:56;;;;;;;2.78;1.35;;;;;;;;;;5056721;28;20462;-54
2024/01/01 07:50:22;;;;;;;3.47;0.80;;;;;;;;;;5056539;28;20031;-55
2024/01/01 07:52:48;;;;;;;2.25;1.17;;;;;;;;;;5056447;28;20036;-56
2024/01/01 07:55:14;;;;;;;2.92;0.82;;;;;;;;;;5056218;28;20079;-56
2024/01/01 07:57:40;;;;;;;1.60;0.77;;;;;;;;;;5056839;28;20439;-56
2024/01/01 08:00:09;;;;;;;3.45;1.40;;;;;;;;;;5056833;28;20108;-53
2024/01/01 08:02:35;;;;;;;1.90;0.73;;;;;;;;;;5056169;28;20033;-53
2024/01/01 08:05:01;;;;;;;3.20;0.80;;;;;;;;;;5056284;28;20048;-53
2024/01/01 08:07:27;;;;;;;2.65;1.23;;;;;;;;;;5056160;28;20383;-54
2024/01/01 08:09:53;;;;;;;2.25;0.73;;;;;;;;;;5056467;28;20021;-55
2024/01/01 08:12:19;;;;;;;3.40;0.90;;;;;;;;;;5056040;28;20116;-54
2024/01/01 08:14:45;;;;;;;5.50;1.10;;;;;;;;;;5056580;28;20191;-56
2024/01/01 08:17:11;;;;;;;1.17;0.70;;;;;;;;;;5056791;28;20021;-52
2024/01/01 08:19:37;;;;;;;8.90;1.05;;;;;;;;;;5055858;28;20530;-52
2024/01/01 08:22:03;;;;;;;6.50;1.10;;;;;;;;;;5056300;28;20061;-55
2024/01/01 08:24:29;;;;;;;3.30;0.88;;;;;;;;;;5056149;28;20070;-53
2024/01/01 08:26:55;;;;;;;1.33;0.63;;;;;;;;;;5056062;28;20423;-53
2024/01/01 08:29:20;;;;;;;1.95;0.85;;;;;;;;;;5055800;28;20136;-54
2024/01/01 08:31:46;;;;;;;5.03;1.08;;;;;;;;;;5055673;28;20057;-52
2024/01/01 08:34:12;;;;;;;3.35;1.00;;;;;;;;;;5055655;28;20029;-56
2024/01/01 08:36:38;;;;;;;2.13;0.93;;;;;;;;;;5055400;28;20021;-51
2024/01/01 08:39:04;;;;;;;1.80;0.50;;;;;;;;;;5055333;28;20036;-55
2024/01/01 08:41:30;;;;;;;6.03;1.08;;;;;;;;;;5055796;28;20033;-55
2024/01/01 08:43:59;;;;;;;1.40;0.73;;;;;;;;;;5056047;28;20025;-53
2024/01/01 08:46:26;;;;;;;4.10;0.98;;;;;;;;;;5055428;28;20037;-54
2024/01/01 08:48:52;;;;;;;2.85;0.70;;;;;;;;;;5056168;28;20048;-56
2024/01/01 08:51:19;;;;;;;2.80;0.85;;;;;;;;;;5054252;28;20025;-54
2024/01/01 08:53:45;;;;;;;1.48;0.50;;;;;;;;;;5055255;28;20036;-54
2024/01/01 08:56:11;;;;;;;5.97;0.90;;;;;;;;;;5055568;28;20106;-56
2024/01/01 08:58:37;;;;;;;3.15;0.75;;;;;;;;;;5054654;28;20033;-56
2024/01/01 09:01:03;;;;;;;2.20;0.50;;;;;;;;;;5054870;28;20033;-55
2024/01/01 09:03:30;;;;;;;0.68;0.30;;;;;;;;;;5054715;28;20032;-54
2024/01/01 09:05:57;;;;;;;1.58;0.50;;;;;;;;;;5054902;28;20463;-55
2024/01/01 09:08:24;;;;;;;2.10;0.93;;;;;;;;;;5055511;28;20033;-55
2024/01/01 09:10:49;;;;;;;1.13;0.52;;;;;;;;;;5054856;28;20064;-56
2024/01/01 09:13:15;;;;;;;9.27;1.30;;;;;;;;;;5055045;28;20060;-57
2024/01/01 09:15:41;;;;;;;3.60;0.70;;;;;;;;;;5054949;28;20063;-55
2024/01/01 09:18:07;;;;;;;1.90;0.70;;;;;;;;;;5054930;28;20033;-56
2024/01/01 09:20:33;;;;;;;7.93;0.90;;;;;;;;;;5055488;28;20033;-51
2024/01/01 09:22:59;;;;;;;2.65;0.80;;;;;;;;;;5054373;28;20040;-52
2024/01/01 09:25:25;;;;;;;3.47;0.75;;;;;;;;;;5055095;28;20036;-53
2024/01/01 09:27:51;;;;;;;1.17;0.50;;;;;;;;;;5055679;28;20156;-55
2024/01/01 09:30:17;;;;;;;2.33;1.13;;;;;;;;;;5054397;28;20091;-51
2024/01/01 09:32:43;;;;;;;3.47;0.55;;;;;;;;;;5053924;28;20028;-54
2024/01/01 09:35:09;;;;;;;3.92;1.05;;;;;;;;;;5054026;28;20025;-55
2024/01/01 09:37:36;;;;;;;3.10;1.25;;;;;;;;;;5054831;28;20379;-54
2024/01/01 09:40:02;;;;;;;2.88;1.05;;;;;;;;;;5055077;28;20461;-51
2024/01/01 09:42:29;;;;;;;1.17;0.57;;;;;;;;;;5054678;28;20071;-52
2024/01/01 09:44:55;;;;;;;2.35;0.85;;;;;;;;;;5054098;28;20028;-56
2024/01/01 09:47:21;;;;;;;1.77;0.70;;;;;;;;;;5054540;28;20490;-55
2024/01/01 09:49:47;;;;;;;2.33;0.63;;;;;;;;;;5053708;28;20351;-53
2024/01/01 09:52:16;;;;;;;1.08;0.40;;;;;;;;;;5054167;28;20033;-51
2024/01/01 09:54:42;;;;;;;0.73;0.35;;;;;;;;;;5053247;28;20040;-54
2024/01/01 09:57:08;;;;;;;2.95;0.50;;;;;;;;;;5053960;28;20045;-50
2024/01/01 09:59:37;;;;;;;1.63;0.25;;;;;;;;;;5054843;28;20043;-51
2024/01/01 10:02:07;;;;;;;1.67;0.60;;;;;;;;;;5054441;28;20360;-53
2024/01/01 10:04:37;;;;;;;7.38;0.80;;;;;;;;;;5054270;28;20074;-54
2024/01/01 10:07:04;;;;;;;0.65;0.28;;;;;;;;;;5054310;28;20025;-53
2024/01/01 10:09:31;;;;;;;0.77;0.40;;;;;;;;;;5054008;28;20079;-52
2024/01/01 10:12:10;;;;;;;1.00;0.52;;;;;;;;;;5054173;28;20029;-52
2024/01/01 10:14:44;;;;;;;3.25;0.50;;;;;;;;;;5053690;28;20115;-51
2024/01/01 10:17:14;;;;;;;1.48;0.68;;;;;;;;;;5054415;28;20071;-55
2024/01/01 10:19:48;;;;;;;2.65;0.75;;;;;;;;;;5054303;28;20029;-52
2024/01/01 10:22:14;;;;;;;1.15;0.32;;;;;;;;;;5054388;28;20052;-53
2024/01/01 10:24:40;;;;;;;3.85;0.90;;;;;;;;;;5053921;28;20025;-51
2024/01/01 10:27:07;;;;;;;2.80;1.00;;;;;;;;;;5053923;28;20025;-54
2024/01/01 10:29:35;;;;;;;2.47;0.95;;;;;;;;;;5053118;28;20025;-56
2024/01/01 10:32:01;;;;;;;1.65;0.80;;;;;;;;;;5053605;28;20033;-52
2024/01/01 10:34:28;;;;;;;3.30;0.85;;;;;;;;;;5053800;28;20063;-54
2024/01/01 10:36:54;;;;;;;2.08;0.60;;;;;;;;;;5053595;28;20408;-56
2024/01/01 10:39:21;;;;;;;1.63;0.60;;;;;;;;;;5053482;28;20032;-51
2024/01/01 10:41:50;;;;;;;2.25;0.82;;;;;;;;;;5053506;28;20036;-53
2024/01/01 10:44:17;;;;;;;1.98;0.65;;;;;;;;;;5053543;28;20032;-55
2024/01/01 10:46:46;;;;;;;2.58;0.80;;;;;;;;;;5053846;28;20112;-54
2024/01/01 10:49:24;;;;;;;2.53;0.60;;;;;;;;;;5053947;28;20029;-57
2024/01/01 10:52:07;;;;;;;1.48;0.52;;;;;;;;;;5053243;28;20474;-56
2024/01/01 10:54:36;;;;;;;2.65;0.57;;;;;;;;;;5053538;28;20040;-55
2024/01/01 10:57:22;;;;;;;1.98;0.52;;;;;;;;;;5053690;28;20049;-54
2024/01/01 10:59:59;;;;;;;1.25;0.52;;;;;;;;;;5042455;28;20044;-50
2024/01/01 11:02:26;;;;;;;1.65;0.60;;;;;;;;;;5056802;28;20108;-51
2024/01/01 11:05:08;;;;;;;4.25;1.15;;;;;;;;;;5057007;28;20036;-55
2024/01/01 11:07:52;;;;;;;3.58;0.82;;;;;;;;;;5057716;28;20029;-55
2024/01/01 11:10:38;;;;;;;1.83;0.70;;;;;;;;;;5057641;28;20086;-53
2024/01/01 11:13:04;;;;;;;0.82;0.52;;;;;;;;;;5057077;28;20158;-56
2024/01/01 11:15:46;;;;;;;4.05;1.10;;;;;;;;;;5057352;28;20036;-55
2024/01/01 11:18:18;;;;;;;3.58;1.20;;;;;;;;;;5057462;28;20120;-51
2024/01/01 11:20:50;;;;;;;8.70;1.70;;;;;;;;;;5057341;28;20033;-52
2024/01/01 11:23:35;;;;;;;5.60;1.55;;;;;;;;;;5056987;28;20375;-51
2024/01/01 11:26:01;;;;;;;2.78;1.00;;;;;;;;;;5057498;28;20467;-52
2024/01/01 11:28:38;;;;;;;1.23;0.50;;;;;;;;;;5057111;28;20108;-51
2024/01/01 11:31:04;;;;;;;2.78;1.00;;;;;;;;;;5057329;28;20032;-53
2024/01/01 11:33:31;;;;;;;2.20;0.95;;;;;;;;;;5057125;28;20025;-48
2024/01/01 11:36:09;;;;;;;2.55;1.02;;;;;;;;;;5056566;28;20477;-50
2024/01/01 11:38:35;;;;;;;2.53;0.45;;;;;;;;;;5056892;28;20036;-50
2024/01/01 11:41:01;;;;;;;9.02;1.40;;;;;;;;;;5056401;28;20498;-50
2024/01/01 11:43:27;;;;;;;5.25;1.00;;;;;;;;;;5056637;28;20371;-52
2024/01/01 11:45:56;;;;;;;5.18;0.98;;;;;;;;;;5056485;28;20040;-56
2024/01/01 11:48:22;;;;;;;5.10;1.25;;;;;;;;;;5057100;28;20075;-56
2024/01/01 11:50:49;;;;;;;2.38;0.93;;;;;;;;;;5056433;28;20112;-56
2024/01/01 11:53:21;;;;;;;3.47;1.60;;;;;;;;;;5056718;28;20025;-58
2024/01/01 11:55:47;;;;;;;1.83;0.77;;;;;;;;;;5056749;28;20406;-54
2024/01/01 11:58:13;;;;;;;1.95;0.63;;;;;;;;;;5056273;28;20119;-57
2024/01/01 12:00:40;;;;;;;5.68;0.80;;;;;;;;;;5056573;28;20033;-55
2024/01/01 12:03:06;;;;;;;5.22;1.05;;;;;;;;;;5056032;28;20469;-52
2024/01/01 12:05:33;;;;;;;1.25;0.55;;;;;;;;;;5056131;28;20116;-51
2024/01/01 12:08:00;;;;;;;1.45;0.80;;;;;;;;;;5056738;28;20029;-54
2024/01/01 12:10:27;;;;;;;2.17;0.90;;;;;;;;;;5056675;28;20142;-53
2024/01/01 12:13:03;;;;;;;5.05;1.17;;;;;;;;;;5054281;28;20487;-56
2024/01/01 12:15:32;;;;;;;4.10;1.38;;;;;;;;;;5055665;28;20489;-54
2024/01/01 12:17:58;;;;;;;4.00;1.33;;;;;;;;;;5056715;28;20029;-55
2024/01/01 12:20:25;;;;;;;5.72;0.98;;;;;;;;;;5055922;28;20029;-56
2024/01/01 12:22:52;;;;;;;2.90;0.90;;;;;;;;;;5056394;28;20167;-56
2024/01/01 12:25:19;;;;;;;3.42;1.65;;;;;;;;;;5055612;28;20025;-56
2024/01/01 12:27:59;;;;;;;2.67;1.23;;;;;;;;;;5056379;28;20102;-54
2024/01/01 12:30:27;;;;;;;2.13;0.82;;;;;;;;;;5056241;28;20025;-53
2024/01/01 12:32:53;;;;;;;2.53;0.90;;;;;;;;;;5056526;28;20033;-57
2024/01/01 12:35:19;;;;;;;2.42;1.27;;;;;;;;;;5055689;28;20485;-57
2024/01/01 12:37:47;;;;;;;0.98;0.60;;;;;;;;;;5055576;28;20037;-55
2024/01/01 12:40:13;;;;;;;3.50;0.75;;;;;;;;;;5055835;28;20070;-55
2024/01/01 12:42:39;;;;;;;3.40;1.05;;;;;;;;;;5055671;28;20025;-56
2024/01/01 12:45:06;;;;;;;4.97;1.05;;;;;;;;;;5055500;28;20029;-55
2024/01/01 12:47:32;;;;;;;3.85;1.08;;;;;;;;;;5056349;28;20459;-57
2024/01/01 12:49:58;;;;;;;2.20;0.80;;;;;;;;;;5055413;28;20382;-53
2024/01/01 12:52:24;;;;;;;3.33;1.35;;;;;;;;;;5055683;28;20029;-55
2024/01/01 12:54:50;;;;;;;2.72;1.02;;;;;;;;;;5054968;28;20025;-56
2024/01/01 12:57:17;;;;;;;5.10;1.55;;;;;;;;;;5054979;28;20135;-53
2024/01/01 12:59:43;;;;;;;3.58;1.13;;;;;;;;;;5055412;28;20464;-54
2024/01/01 13:02:09;;;;;;;4.38;1.20;;;;;;;;;;5055054;28;20040;-55
2024/01/01 13:04:35;;;;;;;4.47;0.88;;;;;;;;;;5055157;28;20403;-56
2024/01/01 13:07:01;;;;;;;2.75;1.33;;;;;;;;;;5055516;28;20056;-57
2024/01/01 13:09:27;;;;;;;1.90;0.73;;;;;;;;;;5055278;28;20031;-54
2024/01/01 13:11:53;;;;;;;5.25;1.17;;;;;;;;;;5054912;28;20025;-54
2024/01/01 13:14:19;;;;;;;3.00;0.93;;;;;;;;;;5054875;28;20025;-57
2024/01/01 13:16:47;;;;;;;3.03;1.13;;;;;;;;;;5055145;28;20502;-52
2024/01/01 13:19:13;;;;;;;3.65;1.05;;;;;;;;;;5055406;28;20404;-57
2024/01/01 13:21:40;;;;;;;1.15;0.52;;;;;;;;;;5054373;28;20029;-51
2024/01/01 13:24:07;;;;;;;6.20;1.65;;;;;;;;;;5054122;28;20064;-53
2024/01/01 13:26:34;;;;;;;3.70;1.00;;;;;;;;;;5054691;28;20098;-55
2024/01/01 13:29:00;;;;;;;4.15;1.30;;;;;;;;;;5054713;28;20029;-54
2024/01/01 13:31:26;;;;;;;1.65;0.70;;;;;;;;;;5054572;28;20025;-52
2024/01/01 13:33:53;;;;;;;3.25;1.20;;;;;;;;;;5055212;28;20513;-53
2024/01/01 13:36:19;;;;;;;1.75;0.82;;;;;;;;;;5054598;28;20017;-53
2024/01/01 13:38:45;;;;;;;4.75;0.65;;;;;;;;;;5054994;28;20367;-55
2024/01/01 13:41:10;;;;;;;1.95;0.90;;;;;;;;;;5054496;28;20481;-54
2024/01/01 13:43:40;;;;;;;6.22;1.25;;;;;;;;;;5054739;28;20041;-57
2024/01/01 13:46:06;;;;;;;3.15;1.08;;;;;;;;;;5054008;28;20021;-56
2024/01/01 13:48:32;;;;;;;6.70;1.73;;;;;;;;;;5054246;28;20025;-53
2024/01/01 13:50:58;;;;;;;4.38;1.05;;;;;;;;;;5053685;28;20036;-57
2024/01/01 13:53:25;;;;;;;7.47;1.27;;;;;;;;;;5054261;28;20025;-56
2024/01/01 13:55:51;;;;;;;2.30;0.90;;;;;;;;;;5054148;28;20044;-56
2024/01/01 13:58:17;;;;;;;2.38;0.95;;;;;;;;;;5054397;28;20139;-55
2024/01/01 14:00:44;;;;;;;2.63;1.02;;;;;;;;;;5054518;28;20447;-55
2024/01/01 14:03:14;;;;;;;4.53;1.20;;;;;;;;;;5054227;28;20021;-55
2024/01/01 14:05:41;;;;;;;6.55;1.58;;;;;;;;;;5054009;28;20032;-54
2024/01/01 14:08:07;;;;;;;3.13;1.50;;;;;;;;;;5054013;28;20033;-54
2024/01/01 14:10:33;;;;;;;5.65;1.38;;;;;;;;;;5054479;28;20031;-55
2024/01/01 14:12:59;;;;;;;2.40;0.80;;;;;;;;;;5053641;28;20048;-57
2024/01/01 14:15:26;;;;;;;2.28;0.93;;;;;;;;;;5053898;28;20040;-57
2024/01/01 14:17:52;;;;;;;3.53;0.70;;;;;;;;;;5054607;28;20029;-57
2024/01/01 14:20:18;;;;;;;3.22;1.05;;;;;;;;;;5054285;28;20451;-56
2024/01/01 14:22:45;;;;;;;5.63;0.68;;;;;;;;;;5054300;28;20108;-56
2024/01/01 14:25:11;;;;;;;10.15;1.15;;;;;;;;;;5053703;28;20068;-57
2024/01/01 14:27:37;;;;;;;8.05;1.50;;;;;;;;;;5054074;28;20029;-55
2024/01/01 14:30:05;;;;;;;7.75;2.05;;;;;;;;;;5053632;28;20478;-53
2024/01/01 14:32:31;;;;;;;2.47;0.75;;;;;;;;;;5054176;28;20104;-57
2024/01/01 14:34:57;;;;;;;3.40;0.63;;;;;;;;;;5053856;28;20090;-54
2024/01/01 14:37:23;;;;;;;2.45;0.98;;;;;;;;;;5052798;28;20017;-55